NSZ8281 ESGG-EFHK
Flight info
| Callsign | NSZ8281 |
|---|---|
| Flight time | 0h 58m |
| Altitude | 37000 |
| Route | LABAN N873 DETSO DCT TUSNI DCT RIRIP Y364 LAKUT |
| Aircraft | B739/M-SDE2E3FGHIRWXY/LB1 |
Departure
| Time | 2026-05-05 17:53 |
|---|---|
| Airport | Göteborg Landvetter Airport (ESGG) |
Arrival
| Time | 2026-05-05 18:52 |
|---|---|
| Airport | Helsinki Vantaa Airport (EFHK) |
| Time | Latitude | Longitude | Altitude | Speed | Heading |
|---|---|---|---|---|---|
| 2026-05-05 17:37 | 57.66889 | 12.29418 | 515 ft | 0 kts | 116° |
| 2026-05-05 17:45 | 57.66894 | 12.29400 | 515 ft | 2 kts | 116° |
| 2026-05-05 17:46 | 57.66901 | 12.29372 | 515 ft | 2 kts | 115° |
| 2026-05-05 17:46 | 57.66906 | 12.29344 | 515 ft | 2 kts | 90° |
| 2026-05-05 17:46 | 57.66903 | 12.29318 | 515 ft | 1 kts | 33° |
| 2026-05-05 17:46 | 57.66896 | 12.29310 | 515 ft | 1 kts | 19° |
| 2026-05-05 17:47 | 57.66895 | 12.29310 | 515 ft | 0 kts | 19° |
| 2026-05-05 17:49 | 57.66903 | 12.29313 | 515 ft | 3 kts | 10° |
| 2026-05-05 17:49 | 57.66930 | 12.29322 | 515 ft | 5 kts | 10° |
| 2026-05-05 17:49 | 57.66978 | 12.29314 | 515 ft | 8 kts | 316° |
| 2026-05-05 17:50 | 57.67004 | 12.29226 | 515 ft | 8 kts | 310° |
| 2026-05-05 17:50 | 57.67062 | 12.29207 | 515 ft | 12 kts | 18° |
| 2026-05-05 17:50 | 57.67140 | 12.29274 | 515 ft | 12 kts | 25° |
| 2026-05-05 17:50 | 57.67212 | 12.29337 | 515 ft | 6 kts | 25° |
| 2026-05-05 17:51 | 57.67249 | 12.29369 | 515 ft | 6 kts | 25° |
| 2026-05-05 17:51 | 57.67285 | 12.29400 | 515 ft | 6 kts | 26° |
| 2026-05-05 17:51 | 57.67320 | 12.29434 | 515 ft | 6 kts | 27° |
| 2026-05-05 17:51 | 57.67332 | 12.29445 | 515 ft | 2 kts | 26° |
| 2026-05-05 17:52 | 57.67367 | 12.29476 | 515 ft | 11 kts | 18° |
| 2026-05-05 17:52 | 57.67433 | 12.29394 | 515 ft | 13 kts | 296° |
| 2026-05-05 17:52 | 57.67461 | 12.29239 | 514 ft | 13 kts | 274° |
| 2026-05-05 17:52 | 57.67452 | 12.29079 | 514 ft | 12 kts | 248° |
| 2026-05-05 17:53 | 57.67348 | 12.28948 | 514 ft | 37 kts | 205° |
| 2026-05-05 17:53 | 57.66844 | 12.28489 | 512 ft | 121 kts | 206° |
| 2026-05-05 17:53 | 57.65899 | 12.27577 | 573 ft | 179 kts | 209° |
| 2026-05-05 17:53 | 57.64705 | 12.26539 | 1309 ft | 193 kts | 207° |
| 2026-05-05 17:54 | 57.63434 | 12.25504 | 2129 ft | 209 kts | 203° |
| 2026-05-05 17:54 | 57.61968 | 12.25282 | 2920 ft | 222 kts | 166° |
| 2026-05-05 17:54 | 57.60541 | 12.26404 | 3908 ft | 221 kts | 158° |
| 2026-05-05 17:54 | 57.59133 | 12.27658 | 4703 ft | 225 kts | 157° |
| 2026-05-05 17:55 | 57.57751 | 12.29047 | 5275 ft | 232 kts | 141° |
| 2026-05-05 17:55 | 57.56852 | 12.31601 | 5690 ft | 248 kts | 108° |
| 2026-05-05 17:55 | 57.56811 | 12.34862 | 6025 ft | 260 kts | 72° |
| 2026-05-05 17:55 | 57.57721 | 12.37734 | 6536 ft | 260 kts | 43° |
| 2026-05-05 17:56 | 57.59071 | 12.39978 | 7086 ft | 261 kts | 36° |
| 2026-05-05 17:56 | 57.60497 | 12.42111 | 7634 ft | 265 kts | 34° |
| 2026-05-05 17:56 | 57.61989 | 12.44305 | 7915 ft | 282 kts | 34° |
| 2026-05-05 17:56 | 57.63563 | 12.46628 | 8467 ft | 293 kts | 34° |
| 2026-05-05 17:57 | 57.65164 | 12.49018 | 9320 ft | 296 kts | 34° |
| 2026-05-05 17:57 | 57.66778 | 12.51448 | 10094 ft | 301 kts | 34° |
| 2026-05-05 17:57 | 57.68453 | 12.53974 | 10422 ft | 322 kts | 34° |
| 2026-05-05 17:57 | 57.70257 | 12.56703 | 10626 ft | 344 kts | 34° |
| 2026-05-05 17:58 | 57.72160 | 12.59599 | 11041 ft | 359 kts | 34° |
| 2026-05-05 17:58 | 57.74108 | 12.62585 | 11681 ft | 366 kts | 34° |
| 2026-05-05 17:58 | 57.76091 | 12.65637 | 12363 ft | 372 kts | 34° |
| 2026-05-05 17:58 | 57.78104 | 12.68739 | 13025 ft | 378 kts | 34° |
| 2026-05-05 17:59 | 57.80157 | 12.71901 | 13680 ft | 385 kts | 33° |
| 2026-05-05 17:59 | 57.82249 | 12.75077 | 14281 ft | 389 kts | 33° |
| 2026-05-05 17:59 | 57.85730 | 12.80368 | 15354 ft | 394 kts | 33° |
| 2026-05-05 17:59 | 57.94393 | 12.93784 | 17809 ft | 412 kts | 34° |
| 2026-05-05 18:00 | 58.03368 | 13.07917 | 19919 ft | 428 kts | 34° |
| 2026-05-05 18:00 | 58.12640 | 13.22606 | 22013 ft | 444 kts | 33° |
| 2026-05-05 18:00 | 58.21745 | 13.39138 | 23896 ft | 466 kts | 44° |
| 2026-05-05 18:00 | 58.29008 | 13.56008 | 25384 ft | 477 kts | 46° |
| 2026-05-05 18:01 | 58.31119 | 13.60885 | 25766 ft | 480 kts | 45° |
| 2026-05-05 18:01 | 58.33269 | 13.65773 | 26156 ft | 483 kts | 45° |
| 2026-05-05 18:01 | 58.35439 | 13.70660 | 26558 ft | 485 kts | 45° |
| 2026-05-05 18:01 | 58.37635 | 13.75586 | 26965 ft | 488 kts | 44° |
| 2026-05-05 18:02 | 58.39836 | 13.80525 | 27347 ft | 491 kts | 44° |
| 2026-05-05 18:02 | 58.42019 | 13.85437 | 27719 ft | 493 kts | 45° |
| 2026-05-05 18:02 | 58.44242 | 13.90454 | 28079 ft | 496 kts | 45° |
| 2026-05-05 18:02 | 58.46478 | 13.95515 | 28422 ft | 500 kts | 45° |
| 2026-05-05 18:03 | 58.48720 | 14.00607 | 28772 ft | 503 kts | 45° |
| 2026-05-05 18:03 | 58.50976 | 14.05742 | 29133 ft | 505 kts | 45° |
| 2026-05-05 18:03 | 58.53242 | 14.10913 | 29503 ft | 508 kts | 45° |
| 2026-05-05 18:03 | 58.55511 | 14.16099 | 29854 ft | 510 kts | 45° |
| 2026-05-05 18:04 | 58.57793 | 14.21323 | 30142 ft | 512 kts | 45° |
| 2026-05-05 18:04 | 58.60048 | 14.26643 | 30410 ft | 517 kts | 49° |
| 2026-05-05 18:04 | 58.62004 | 14.32464 | 30752 ft | 520 kts | 56° |
| 2026-05-05 18:04 | 58.63810 | 14.38467 | 31205 ft | 518 kts | 57° |
| 2026-05-05 18:05 | 58.65568 | 14.44496 | 31626 ft | 517 kts | 57° |
| 2026-05-05 18:05 | 58.67313 | 14.50524 | 31982 ft | 516 kts | 57° |
| 2026-05-05 18:05 | 58.69080 | 14.56543 | 32320 ft | 516 kts | 57° |
| 2026-05-05 18:05 | 58.70856 | 14.62525 | 32660 ft | 516 kts | 57° |
| 2026-05-05 18:06 | 58.72638 | 14.68506 | 33025 ft | 514 kts | 57° |
| 2026-05-05 18:06 | 58.73838 | 14.72539 | 33266 ft | 514 kts | 57° |
| 2026-05-05 18:06 | 58.76181 | 14.80447 | 33690 ft | 513 kts | 57° |
| 2026-05-05 18:06 | 58.77944 | 14.86427 | 33998 ft | 513 kts | 57° |
| 2026-05-05 18:07 | 58.79701 | 14.92415 | 34259 ft | 513 kts | 57° |
| 2026-05-05 18:07 | 58.81452 | 14.98402 | 34523 ft | 512 kts | 57° |
| 2026-05-05 18:07 | 58.83193 | 15.04378 | 34798 ft | 511 kts | 58° |
| 2026-05-05 18:07 | 58.84929 | 15.10349 | 35056 ft | 510 kts | 58° |
| 2026-05-05 18:08 | 58.86660 | 15.16322 | 35296 ft | 510 kts | 58° |
| 2026-05-05 18:08 | 58.88388 | 15.22295 | 35530 ft | 509 kts | 58° |
| 2026-05-05 18:08 | 58.90113 | 15.28273 | 35767 ft | 509 kts | 58° |
| 2026-05-05 18:08 | 58.91831 | 15.34244 | 36030 ft | 507 kts | 58° |
| 2026-05-05 18:09 | 58.93542 | 15.40207 | 36323 ft | 505 kts | 58° |
| 2026-05-05 18:09 | 58.95240 | 15.46138 | 36619 ft | 502 kts | 59° |
| 2026-05-05 18:09 | 58.96928 | 15.52047 | 36872 ft | 501 kts | 59° |
| 2026-05-05 18:10 | 59.00312 | 15.63940 | 36896 ft | 506 kts | 59° |
| 2026-05-05 18:10 | 59.03723 | 15.75990 | 36898 ft | 512 kts | 59° |
| 2026-05-05 18:11 | 59.07157 | 15.88189 | 36893 ft | 517 kts | 59° |
| 2026-05-05 18:11 | 59.10616 | 16.00546 | 36894 ft | 522 kts | 59° |
| 2026-05-05 18:12 | 59.14090 | 16.13020 | 36893 ft | 526 kts | 59° |
| 2026-05-05 18:12 | 59.17575 | 16.25607 | 36886 ft | 529 kts | 60° |
| 2026-05-05 18:13 | 59.21065 | 16.38280 | 36884 ft | 531 kts | 60° |
| 2026-05-05 18:13 | 59.24550 | 16.51007 | 36872 ft | 532 kts | 60° |
| 2026-05-05 18:14 | 59.27999 | 16.63674 | 36871 ft | 531 kts | 60° |
| 2026-05-05 18:14 | 59.31484 | 16.76540 | 36870 ft | 531 kts | 60° |
| 2026-05-05 18:15 | 59.34687 | 16.89450 | 36873 ft | 531 kts | 65° |
| 2026-05-05 18:15 | 59.37484 | 17.02868 | 36869 ft | 531 kts | 67° |
| 2026-05-05 18:16 | 59.40206 | 17.16341 | 36864 ft | 531 kts | 67° |
| 2026-05-05 18:16 | 59.42964 | 17.29809 | 36858 ft | 531 kts | 67° |
| 2026-05-05 18:17 | 59.45742 | 17.43263 | 36860 ft | 531 kts | 67° |
| 2026-05-05 18:17 | 59.48512 | 17.56721 | 36857 ft | 531 kts | 67° |
| 2026-05-05 18:18 | 59.51271 | 17.70233 | 36861 ft | 532 kts | 67° |
| 2026-05-05 18:18 | 59.54012 | 17.83764 | 36858 ft | 532 kts | 67° |
| 2026-05-05 18:19 | 59.56738 | 17.97314 | 36859 ft | 532 kts | 68° |
| 2026-05-05 18:19 | 59.59451 | 18.10891 | 36857 ft | 532 kts | 68° |
| 2026-05-05 18:20 | 59.62105 | 18.24262 | 36857 ft | 532 kts | 68° |
| 2026-05-05 18:20 | 59.64834 | 18.38107 | 36857 ft | 532 kts | 68° |
| 2026-05-05 18:21 | 59.67502 | 18.51732 | 36862 ft | 531 kts | 68° |
| 2026-05-05 18:21 | 59.70155 | 18.65378 | 36869 ft | 531 kts | 68° |
| 2026-05-05 18:22 | 59.72795 | 18.79052 | 36869 ft | 531 kts | 68° |
| 2026-05-05 18:22 | 59.75421 | 18.92747 | 36870 ft | 531 kts | 69° |
| 2026-05-05 18:23 | 59.77591 | 19.04138 | 36870 ft | 531 kts | 69° |
| 2026-05-05 18:23 | 59.80188 | 19.17858 | 36870 ft | 531 kts | 69° |
| 2026-05-05 18:24 | 59.82774 | 19.31614 | 36871 ft | 531 kts | 69° |
| 2026-05-05 18:24 | 59.85176 | 19.45498 | 36870 ft | 531 kts | 72° |
| 2026-05-05 18:25 | 59.87184 | 19.58897 | 36869 ft | 531 kts | 74° |
| 2026-05-05 18:25 | 59.89238 | 19.73014 | 36874 ft | 531 kts | 73° |
| 2026-05-05 18:26 | 59.91314 | 19.87143 | 36876 ft | 531 kts | 73° |
| 2026-05-05 18:26 | 59.93401 | 20.01271 | 36879 ft | 531 kts | 73° |
| 2026-05-05 18:27 | 59.95477 | 20.15407 | 36876 ft | 531 kts | 74° |
| 2026-05-05 18:27 | 59.97537 | 20.29566 | 36875 ft | 531 kts | 74° |
| 2026-05-05 18:28 | 60.00597 | 20.50853 | 36865 ft | 531 kts | 74° |
| 2026-05-05 18:28 | 60.02604 | 20.64973 | 36861 ft | 531 kts | 74° |
| 2026-05-05 18:29 | 60.04568 | 20.78901 | 36835 ft | 507 kts | 74° |
| 2026-05-05 18:29 | 60.06444 | 20.92328 | 36859 ft | 498 kts | 75° |
| 2026-05-05 18:30 | 60.08293 | 21.05669 | 36847 ft | 494 kts | 75° |
| 2026-05-05 18:30 | 60.10100 | 21.18820 | 36853 ft | 486 kts | 75° |
| 2026-05-05 18:31 | 60.11877 | 21.31858 | 36867 ft | 484 kts | 75° |
| 2026-05-05 18:31 | 60.13652 | 21.44992 | 36080 ft | 498 kts | 75° |
| 2026-05-05 18:32 | 60.14566 | 21.51800 | 35367 ft | 512 kts | 75° |
| 2026-05-05 18:32 | 60.15497 | 21.58762 | 34647 ft | 519 kts | 76° |
| 2026-05-05 18:32 | 60.16429 | 21.65766 | 33934 ft | 519 kts | 76° |
| 2026-05-05 18:32 | 60.17357 | 21.72768 | 32943 ft | 519 kts | 76° |
| 2026-05-05 18:33 | 60.18283 | 21.79784 | 31854 ft | 520 kts | 76° |
| 2026-05-05 18:33 | 60.19204 | 21.86798 | 30826 ft | 519 kts | 76° |
| 2026-05-05 18:33 | 60.20122 | 21.93818 | 29805 ft | 519 kts | 76° |
| 2026-05-05 18:33 | 60.21033 | 22.00821 | 28658 ft | 517 kts | 76° |
| 2026-05-05 18:34 | 60.21937 | 22.07808 | 27547 ft | 516 kts | 76° |
| 2026-05-05 18:34 | 60.22913 | 22.15378 | 26384 ft | 513 kts | 76° |
| 2026-05-05 18:34 | 60.24684 | 22.29213 | 24373 ft | 507 kts | 76° |
| 2026-05-05 18:34 | 60.26416 | 22.42873 | 22305 ft | 500 kts | 76° |
| 2026-05-05 18:35 | 60.28112 | 22.56370 | 20184 ft | 493 kts | 77° |
| 2026-05-05 18:35 | 60.29768 | 22.69670 | 18207 ft | 485 kts | 77° |
| 2026-05-05 18:35 | 60.31381 | 22.82751 | 16044 ft | 473 kts | 77° |
| 2026-05-05 18:35 | 60.32924 | 22.95366 | 14025 ft | 454 kts | 76° |
| 2026-05-05 18:36 | 60.34507 | 23.08429 | 13031 ft | 403 kts | 76° |
| 2026-05-05 18:36 | 60.36972 | 23.28998 | 10622 ft | 360 kts | 75° |
| 2026-05-05 18:36 | 60.38808 | 23.44559 | 9752 ft | 306 kts | 75° |
| 2026-05-05 18:36 | 60.39292 | 23.48689 | 9883 ft | 306 kts | 75° |
| 2026-05-05 18:37 | 60.39806 | 23.53047 | 9980 ft | 331 kts | 75° |
| 2026-05-05 18:37 | 60.40357 | 23.57737 | 10036 ft | 354 kts | 75° |
| 2026-05-05 18:37 | 60.40929 | 23.62646 | 10031 ft | 361 kts | 75° |
| 2026-05-05 18:37 | 60.41499 | 23.67567 | 10018 ft | 358 kts | 75° |
| 2026-05-05 18:38 | 60.42062 | 23.72449 | 10013 ft | 354 kts | 75° |
| 2026-05-05 18:38 | 60.42620 | 23.77285 | 10012 ft | 352 kts | 75° |
| 2026-05-05 18:38 | 60.43173 | 23.82109 | 10017 ft | 351 kts | 75° |
| 2026-05-05 18:38 | 60.43725 | 23.86934 | 10016 ft | 352 kts | 76° |
| 2026-05-05 18:39 | 60.44140 | 23.91820 | 10015 ft | 354 kts | 82° |
| 2026-05-05 18:39 | 60.44403 | 23.96785 | 10020 ft | 355 kts | 83° |
| 2026-05-05 18:39 | 60.44655 | 24.01768 | 10017 ft | 357 kts | 83° |
| 2026-05-05 18:39 | 60.44921 | 24.06772 | 10016 ft | 358 kts | 83° |
| 2026-05-05 18:40 | 60.45197 | 24.11723 | 10012 ft | 359 kts | 82° |
| 2026-05-05 18:40 | 60.45483 | 24.16749 | 10011 ft | 359 kts | 83° |
| 2026-05-05 18:40 | 60.45768 | 24.21779 | 10009 ft | 360 kts | 83° |
| 2026-05-05 18:40 | 60.46037 | 24.26817 | 10007 ft | 360 kts | 84° |
| 2026-05-05 18:41 | 60.46247 | 24.31865 | 10000 ft | 360 kts | 85° |
| 2026-05-05 18:41 | 60.46438 | 24.36972 | 9776 ft | 355 kts | 85° |
| 2026-05-05 18:41 | 60.46610 | 24.41631 | 9530 ft | 345 kts | 85° |
| 2026-05-05 18:41 | 60.46791 | 24.46433 | 9226 ft | 336 kts | 85° |
| 2026-05-05 18:42 | 60.46973 | 24.51154 | 8943 ft | 327 kts | 85° |
| 2026-05-05 18:42 | 60.47144 | 24.55635 | 8667 ft | 320 kts | 85° |
| 2026-05-05 18:42 | 60.47311 | 24.60085 | 8390 ft | 313 kts | 85° |
| 2026-05-05 18:42 | 60.47220 | 24.64436 | 8110 ft | 307 kts | 98° |
| 2026-05-05 18:43 | 60.46839 | 24.68648 | 7850 ft | 301 kts | 102° |
| 2026-05-05 18:43 | 60.46415 | 24.72755 | 7586 ft | 295 kts | 102° |
| 2026-05-05 18:43 | 60.46015 | 24.76803 | 7315 ft | 290 kts | 101° |
| 2026-05-05 18:43 | 60.45569 | 24.81582 | 6994 ft | 282 kts | 100° |
| 2026-05-05 18:44 | 60.44879 | 24.89202 | 6469 ft | 273 kts | 100° |
| 2026-05-05 18:44 | 60.45473 | 24.96496 | 5929 ft | 267 kts | 51° |
| 2026-05-05 18:44 | 60.47912 | 25.02002 | 5385 ft | 260 kts | 44° |
| 2026-05-05 18:44 | 60.50245 | 25.07112 | 5147 ft | 231 kts | 44° |
| 2026-05-05 18:45 | 60.52213 | 25.11700 | 4854 ft | 204 kts | 60° |
| 2026-05-05 18:45 | 60.52391 | 25.14443 | 4712 ft | 187 kts | 105° |
| 2026-05-05 18:45 | 60.51854 | 25.16763 | 4702 ft | 187 kts | 130° |
| 2026-05-05 18:45 | 60.50904 | 25.18750 | 4309 ft | 202 kts | 140° |
| 2026-05-05 18:46 | 60.49870 | 25.20641 | 3967 ft | 196 kts | 141° |
| 2026-05-05 18:46 | 60.48911 | 25.22386 | 3893 ft | 176 kts | 141° |
| 2026-05-05 18:46 | 60.48013 | 25.24024 | 3915 ft | 179 kts | 141° |
| 2026-05-05 18:46 | 60.46943 | 25.25478 | 3784 ft | 184 kts | 173° |
| 2026-05-05 18:47 | 60.45828 | 25.25048 | 3759 ft | 160 kts | 224° |
| 2026-05-05 18:47 | 60.45003 | 25.23520 | 3553 ft | 164 kts | 225° |
| 2026-05-05 18:47 | 60.44147 | 25.22029 | 3333 ft | 161 kts | 227° |
| 2026-05-05 18:47 | 60.43359 | 25.20469 | 3123 ft | 157 kts | 231° |
| 2026-05-05 18:48 | 60.42615 | 25.18886 | 2937 ft | 155 kts | 232° |
| 2026-05-05 18:48 | 60.41890 | 25.17309 | 2714 ft | 149 kts | 232° |
| 2026-05-05 18:48 | 60.41213 | 25.15831 | 2524 ft | 138 kts | 233° |
| 2026-05-05 18:48 | 60.40577 | 25.14435 | 2353 ft | 133 kts | 234° |
| 2026-05-05 18:49 | 60.39947 | 25.13046 | 2181 ft | 134 kts | 234° |
| 2026-05-05 18:49 | 60.39318 | 25.11664 | 1987 ft | 133 kts | 234° |
| 2026-05-05 18:49 | 60.38693 | 25.10292 | 1826 ft | 133 kts | 234° |
| 2026-05-05 18:49 | 60.38071 | 25.08922 | 1644 ft | 132 kts | 234° |
| 2026-05-05 18:50 | 60.37453 | 25.07565 | 1491 ft | 131 kts | 233° |
| 2026-05-05 18:50 | 60.36829 | 25.06189 | 1316 ft | 133 kts | 232° |
| 2026-05-05 18:50 | 60.36205 | 25.04818 | 1123 ft | 132 kts | 232° |
| 2026-05-05 18:50 | 60.35582 | 25.03447 | 946 ft | 134 kts | 232° |
| 2026-05-05 18:51 | 60.34961 | 25.02072 | 775 ft | 131 kts | 231° |
| 2026-05-05 18:51 | 60.34357 | 25.00722 | 586 ft | 128 kts | 229° |
| 2026-05-05 18:51 | 60.33760 | 24.99411 | 390 ft | 128 kts | 229° |
| 2026-05-05 18:51 | 60.33150 | 24.98093 | 213 ft | 126 kts | 229° |
| 2026-05-05 18:52 | 60.32604 | 24.96886 | 173 ft | 103 kts | 227° |
| 2026-05-05 18:52 | 60.32242 | 24.96090 | 177 ft | 56 kts | 227° |
| 2026-05-05 18:52 | 60.32002 | 24.95689 | 172 ft | 28 kts | 204° |
| 2026-05-05 18:52 | 60.31888 | 24.95609 | 170 ft | 0 kts | 197° |
| 2026-05-05 18:53 | 60.31887 | 24.95608 | 170 ft | 1 kts | 197° |
| 2026-05-05 18:53 | 60.31867 | 24.95596 | 169 ft | 6 kts | 197° |
| 2026-05-05 18:53 | 60.31828 | 24.95616 | 169 ft | 6 kts | 133° |
| 2026-05-05 18:54 | 60.31817 | 24.95701 | 169 ft | 8 kts | 60° |
| 2026-05-05 18:54 | 60.31873 | 24.95833 | 168 ft | 16 kts | 47° |
| 2026-05-05 18:54 | 60.31951 | 24.95998 | 169 ft | 16 kts | 45° |
| 2026-05-05 18:54 | 60.32023 | 24.96159 | 167 ft | 15 kts | 49° |
| 2026-05-05 18:55 | 60.32092 | 24.96318 | 167 ft | 15 kts | 49° |
| 2026-05-05 18:55 | 60.32158 | 24.96467 | 167 ft | 14 kts | 46° |
| 2026-05-05 18:55 | 60.32224 | 24.96606 | 167 ft | 13 kts | 46° |
| 2026-05-05 18:55 | 60.32241 | 24.96735 | 165 ft | 7 kts | 127° |
| 2026-05-05 18:56 | 60.32203 | 24.96790 | 165 ft | 7 kts | 146° |
| 2026-05-05 18:56 | 60.32165 | 24.96841 | 165 ft | 6 kts | 146° |
| 2026-05-05 18:56 | 60.32128 | 24.96889 | 165 ft | 6 kts | 148° |
| 2026-05-05 18:56 | 60.32083 | 24.96935 | 165 ft | 10 kts | 155° |
| 2026-05-05 18:57 | 60.31991 | 24.97022 | 165 ft | 17 kts | 153° |
| 2026-05-05 18:57 | 60.31901 | 24.97116 | 165 ft | 11 kts | 152° |
| 2026-05-05 18:57 | 60.31854 | 24.97139 | 165 ft | 4 kts | 207° |
| 2026-05-05 18:57 | 60.31838 | 24.97094 | 166 ft | 4 kts | 240° |
| 2026-05-05 18:58 | 60.31828 | 24.97055 | 166 ft | 2 kts | 242° |
| 2026-05-05 18:58 | 60.31826 | 24.97048 | 166 ft | 0 kts | 242° |
| 2026-05-05 18:58 | 60.31825 | 24.97047 | 166 ft | 0 kts | 242° |
| 2026-05-05 18:59 | 60.31826 | 24.97047 | 166 ft | 0 kts | 242° |